createdAt,value
2023-05-11T00:01:06.954Z,98802.20
2023-05-11T00:03:35.011Z,98800.46
2023-05-11T00:06:02.900Z,98801.01
2023-05-11T00:08:30.367Z,98802.23
2023-05-11T00:11:00.289Z,98801.02
2023-05-11T00:13:27.923Z,98803.69
2023-05-11T00:15:55.178Z,98802.60
2023-05-11T00:18:22.500Z,98803.95
2023-05-11T00:20:49.774Z,98802.77
2023-05-11T00:23:16.883Z,98797.92
2023-05-11T00:25:43.924Z,98795.38
2023-05-11T00:28:11.119Z,98798.59
2023-05-11T00:30:39.933Z,98800.82
2023-05-11T00:33:07.053Z,98795.26
2023-05-11T00:35:34.591Z,98797.02
2023-05-11T00:38:01.851Z,98796.95
2023-05-11T00:40:31.658Z,98796.74
2023-05-11T00:42:58.620Z,98795.60
2023-05-11T00:45:26.384Z,98796.20
2023-05-11T00:47:53.586Z,98793.55
2023-05-11T00:50:20.999Z,98793.08
2023-05-11T00:52:48.156Z,98798.99
2023-05-11T00:55:18.795Z,98799.71
2023-05-11T00:57:46.224Z,98803.52
2023-05-11T01:00:14.326Z,98805.79
2023-05-11T01:02:42.306Z,98804.02
2023-05-11T01:05:10.173Z,98804.02
2023-05-11T01:07:59.457Z,98807.66
2023-05-11T01:10:38.264Z,98811.04
2023-05-11T01:13:24.450Z,98810.70
2023-05-11T01:15:56.108Z,98812.03
2023-05-11T01:18:41.915Z,98807.13
2023-05-11T01:21:15.272Z,98809.68
2023-05-11T01:24:11.812Z,98812.14
2023-05-11T01:27:19.301Z,98813.48
2023-05-11T01:30:10.798Z,98811.27
2023-05-11T01:32:41.776Z,98808.42
2023-05-11T01:35:21.522Z,98809.59
2023-05-11T01:37:55.510Z,98810.98
2023-05-11T01:40:27.204Z,98814.80
2023-05-11T01:43:03.521Z,98814.30
2023-05-11T01:45:34.136Z,98815.33
2023-05-11T01:48:05.674Z,98814.75
2023-05-11T01:50:34.049Z,98816.19
2023-05-11T01:53:04.279Z,98816.11
2023-05-11T01:55:34.944Z,98817.32
2023-05-11T01:58:03.690Z,98816.61
2023-05-11T02:00:32.760Z,98817.90
2023-05-11T02:03:02.555Z,98819.73
2023-05-11T02:05:31.866Z,98820.02
2023-05-11T02:08:01.167Z,98819.18
2023-05-11T02:10:29.139Z,98821.59
2023-05-11T02:12:58.361Z,98819.70
2023-05-11T02:15:27.789Z,98820.61
2023-05-11T02:17:55.740Z,98821.98
2023-05-11T02:20:24.927Z,98821.52
2023-05-11T02:22:54.236Z,98822.17
2023-05-11T02:25:23.355Z,98825.77
2023-05-11T02:27:51.118Z,98824.05
2023-05-11T02:30:18.834Z,98828.29
2023-05-11T02:32:51.257Z,98829.55
2023-05-11T02:35:23.850Z,98826.42
2023-05-11T02:37:56.202Z,98824.83
2023-05-11T02:40:33.394Z,98824.30
2023-05-11T02:43:10.097Z,98828.45
2023-05-11T02:45:42.165Z,98828.14
2023-05-11T02:48:19.300Z,98832.02
2023-05-11T02:50:48.202Z,98828.19
2023-05-11T02:53:18.152Z,98831.83
2023-05-11T02:55:46.327Z,98828.05
2023-05-11T02:58:14.278Z,98828.29
2023-05-11T03:00:43.367Z,98828.84
2023-05-11T03:03:11.121Z,98832.48
2023-05-11T03:05:38.196Z,98829.00
2023-05-11T03:08:05.375Z,98836.44
2023-05-11T03:10:33.796Z,98832.95
2023-05-11T03:13:02.133Z,98832.55
2023-05-11T03:15:31.013Z,98831.06
2023-05-11T03:18:00.868Z,98835.29
2023-05-11T03:20:29.549Z,98835.11
2023-05-11T03:22:56.794Z,98836.58
2023-05-11T03:25:24.586Z,98842.75
2023-05-11T03:27:53.137Z,98843.23
2023-05-11T03:30:22.143Z,98843.55
2023-05-11T03:32:50.849Z,98840.64
2023-05-11T03:35:18.301Z,98838.80
2023-05-11T03:37:48.413Z,98833.63
2023-05-11T03:40:19.307Z,98833.27
2023-05-11T03:42:53.160Z,98833.05
2023-05-11T03:45:21.448Z,98831.56
2023-05-11T03:47:51.039Z,98833.32
2023-05-11T03:50:19.604Z,98828.80
2023-05-11T03:52:48.797Z,98828.19
2023-05-11T03:55:16.225Z,98831.04
2023-05-11T03:57:43.468Z,98833.80
2023-05-11T04:00:11.348Z,98834.52
2023-05-11T04:02:44.728Z,98835.84
2023-05-11T04:05:12.914Z,98834.88
2023-05-11T04:07:41.076Z,98836.80
2023-05-11T04:10:08.628Z,98833.72
2023-05-11T04:12:36.021Z,98837.27
2023-05-11T04:15:04.211Z,98837.02
2023-05-11T04:17:31.473Z,98837.92
2023-05-11T04:19:58.652Z,98837.69
2023-05-11T04:22:25.550Z,98838.79
2023-05-11T04:24:52.508Z,98833.90
2023-05-11T04:27:19.387Z,98835.02
2023-05-11T04:29:46.616Z,98832.40
2023-05-11T04:32:15.109Z,98830.95
2023-05-11T04:34:43.078Z,98832.02
2023-05-11T04:37:10.767Z,98829.12
2023-05-11T04:39:38.714Z,98833.33
2023-05-11T04:42:05.846Z,98833.88
2023-05-11T04:44:33.047Z,98832.76
2023-05-11T04:47:00.255Z,98832.58
2023-05-11T04:49:27.543Z,98839.13
2023-05-11T04:51:55.108Z,98834.05
2023-05-11T04:54:22.262Z,98836.05
2023-05-11T04:56:50.250Z,98837.55
2023-05-11T04:59:17.355Z,98835.18
2023-05-11T05:01:44.653Z,98837.36
2023-05-11T05:04:11.848Z,98840.80
2023-05-11T05:06:39.129Z,98836.77
2023-05-11T05:09:06.537Z,98837.02
2023-05-11T05:11:33.896Z,98839.19
2023-05-11T05:14:01.420Z,98838.75
2023-05-11T05:16:30.755Z,98836.60
2023-05-11T05:18:59.731Z,98837.26
2023-05-11T05:21:27.422Z,98842.70
2023-05-11T05:23:55.818Z,98841.14
2023-05-11T05:26:22.873Z,98836.71
2023-05-11T05:28:50.565Z,98839.98
2023-05-11T05:31:22.224Z,98838.14
2023-05-11T05:33:49.860Z,98841.10
2023-05-11T05:36:17.839Z,98844.08
2023-05-11T05:38:47.236Z,98846.53
2023-05-11T05:41:14.499Z,98845.92
2023-05-11T05:43:43.904Z,98846.29
2023-05-11T05:46:11.926Z,98846.20
2023-05-11T05:48:38.970Z,98841.93
2023-05-11T05:51:06.113Z,98838.80
2023-05-11T05:53:33.458Z,98841.63
2023-05-11T05:56:00.709Z,98842.55
2023-05-11T05:58:27.756Z,98839.84
2023-05-11T06:00:56.248Z,98834.33
2023-05-11T06:03:24.533Z,98836.68
2023-05-11T06:05:52.725Z,98836.55
2023-05-11T06:08:19.802Z,98840.31
2023-05-11T06:10:46.854Z,98842.36
2023-05-11T06:13:14.554Z,98838.95
2023-05-11T06:15:43.646Z,98843.94
2023-05-11T06:18:32.384Z,98843.14
2023-05-11T06:21:00.288Z,98841.70
2023-05-11T06:23:27.968Z,98842.98
2023-05-11T06:25:55.133Z,98839.52
2023-05-11T06:28:23.876Z,98841.45
2023-05-11T06:30:51.481Z,98836.73
2023-05-11T06:33:18.428Z,98834.60
2023-05-11T06:35:45.706Z,98834.39
2023-05-11T06:38:13.288Z,98836.16
2023-05-11T06:40:41.006Z,98834.01
2023-05-11T06:43:08.204Z,98830.94
2023-05-11T06:45:46.177Z,98828.48
2023-05-11T06:48:13.462Z,98828.19
2023-05-11T06:50:40.622Z,98824.92
2023-05-11T06:53:10.089Z,98824.64
2023-05-11T06:55:37.498Z,98820.59
2023-05-11T06:58:04.530Z,98817.58
2023-05-11T07:00:31.715Z,98816.55
2023-05-11T07:02:58.722Z,98812.79
2023-05-11T07:05:25.751Z,98814.41
2023-05-11T07:07:52.876Z,98813.66
2023-05-11T07:10:20.077Z,98814.73
2023-05-11T07:12:49.167Z,98814.89
2023-05-11T07:15:16.361Z,98815.23
2023-05-11T07:17:47.170Z,98812.08
2023-05-11T07:20:14.327Z,98810.34
2023-05-11T07:22:41.705Z,98807.46
2023-05-11T07:25:11.531Z,98802.56
2023-05-11T07:27:38.773Z,98802.88
2023-05-11T07:30:06.521Z,98804.35
2023-05-11T07:32:33.602Z,98811.94
2023-05-11T07:35:00.653Z,98808.62
2023-05-11T07:37:27.626Z,98811.59
2023-05-11T07:39:55.183Z,98811.05
2023-05-11T07:42:22.555Z,98810.44
2023-05-11T07:44:49.620Z,98806.97
2023-05-11T07:47:18.512Z,98805.03
2023-05-11T07:49:46.982Z,98805.73
2023-05-11T07:52:14.456Z,98799.91
2023-05-11T07:54:41.699Z,98802.53
2023-05-11T07:57:10.897Z,98802.70
2023-05-11T07:59:38.150Z,98799.50
2023-05-11T08:02:12.815Z,98801.81
2023-05-11T08:04:40.191Z,98806.46
2023-05-11T08:07:08.348Z,98799.13
2023-05-11T08:09:35.382Z,98801.63
2023-05-11T08:12:03.236Z,98802.48
2023-05-11T08:14:30.309Z,98807.82
2023-05-11T08:16:57.349Z,98801.39
2023-05-11T08:19:24.422Z,98799.52
2023-05-11T08:21:51.872Z,98796.06
2023-05-11T08:24:19.127Z,98787.70
2023-05-11T08:26:46.724Z,98787.79
2023-05-11T08:29:13.957Z,98780.41
2023-05-11T08:31:41.381Z,98777.02
2023-05-11T08:34:18.411Z,98778.38
2023-05-11T08:36:47.284Z,98776.05
2023-05-11T08:39:14.757Z,98770.27
2023-05-11T08:41:45.893Z,98769.07
2023-05-11T08:44:15.973Z,98769.77
2023-05-11T08:46:46.685Z,98768.86
2023-05-11T08:49:15.035Z,98763.58
2023-05-11T08:51:42.501Z,98757.43
2023-05-11T08:54:10.567Z,98760.58
2023-05-11T08:56:40.280Z,98758.27
2023-05-11T08:59:08.207Z,98760.42
2023-05-11T09:01:39.081Z,98758.70
2023-05-11T09:04:07.221Z,98761.13
2023-05-11T09:06:36.242Z,98754.52
2023-05-11T09:09:03.970Z,98753.27
2023-05-11T09:11:31.703Z,98748.98
2023-05-11T09:13:58.929Z,98739.67
2023-05-11T09:16:36.685Z,98748.65
2023-05-11T09:19:04.973Z,98744.91
2023-05-11T09:21:32.242Z,98746.45
2023-05-11T09:24:00.165Z,98741.59
2023-05-11T09:26:30.366Z,98742.99
2023-05-11T09:31:37.768Z,98731.26
2023-05-11T09:34:21.909Z,98733.79
2023-05-11T09:36:54.138Z,98733.40
2023-05-11T09:39:41.774Z,98730.86
2023-05-11T09:42:18.822Z,98729.65
2023-05-11T09:44:47.325Z,98723.15
2023-05-11T09:47:17.232Z,98717.95
2023-05-11T09:49:46.318Z,98721.34
2023-05-11T09:52:18.121Z,98727.96
2023-05-11T09:54:51.212Z,98719.52
2023-05-11T09:57:30.155Z,98711.82
2023-05-11T09:59:59.526Z,98705.13
2023-05-11T10:02:31.671Z,98704.67
2023-05-11T10:05:00.969Z,98707.88
2023-05-11T10:07:30.002Z,98701.09
2023-05-11T10:10:01.749Z,98698.98
2023-05-11T10:12:30.028Z,98691.54
2023-05-11T10:15:08.893Z,98688.57
2023-05-11T10:17:37.023Z,98681.58
2023-05-11T10:20:05.536Z,98684.92
2023-05-11T10:22:33.127Z,98682.55
2023-05-11T10:25:01.009Z,98687.91
2023-05-11T10:27:28.230Z,98682.27
2023-05-11T10:29:57.773Z,98677.00
2023-05-11T10:32:25.022Z,98675.72
2023-05-11T10:34:52.170Z,98674.98
2023-05-11T10:37:20.717Z,98674.79
2023-05-11T10:39:50.550Z,98670.54
2023-05-11T10:42:56.020Z,98668.61
2023-05-11T10:45:56.911Z,98669.37
2023-05-11T10:48:49.844Z,98667.41
2023-05-11T10:51:29.151Z,98665.91
2023-05-11T10:54:14.758Z,98674.77
2023-05-11T10:56:59.817Z,98668.08
2023-05-11T10:59:44.783Z,98666.95
2023-05-11T11:02:12.175Z,98664.50
2023-05-11T11:04:50.732Z,98660.17
2023-05-11T11:07:19.219Z,98656.73
2023-05-11T11:09:50.389Z,98653.70
2023-05-11T11:12:18.065Z,98649.99
2023-05-11T11:14:56.187Z,98653.71
2023-05-11T11:17:26.593Z,98663.34
2023-05-11T11:19:54.413Z,98654.86
2023-05-11T11:22:46.386Z,98653.42
2023-05-11T11:25:15.558Z,98651.65
2023-05-11T11:27:48.911Z,98646.79
2023-05-11T11:30:21.601Z,98644.33
2023-05-11T11:32:50.531Z,98641.70
2023-05-11T11:35:39.628Z,98635.46
2023-05-11T11:38:08.724Z,98634.64
2023-05-11T11:40:50.501Z,98640.06
2023-05-11T11:43:24.451Z,98647.50
2023-05-11T11:45:54.860Z,98640.48
2023-05-11T11:48:33.911Z,98644.59
2023-05-11T11:51:12.347Z,98645.12
2023-05-11T11:53:43.338Z,98640.80
2023-05-11T11:56:16.560Z,98636.55
2023-05-11T11:58:46.703Z,98642.39
2023-05-11T12:01:21.588Z,98645.73
2023-05-11T12:04:30.932Z,98641.29
2023-05-11T12:06:58.801Z,98641.11
2023-05-11T12:09:26.887Z,98636.38
2023-05-11T12:11:54.575Z,98638.42
2023-05-11T12:14:21.992Z,98637.80
2023-05-11T12:17:07.812Z,98637.58
2023-05-11T12:19:35.000Z,98634.46
2023-05-11T12:22:02.068Z,98635.75
2023-05-11T12:24:29.480Z,98628.66
2023-05-11T12:26:57.100Z,98629.50
2023-05-11T12:29:24.455Z,98624.67
2023-05-11T12:31:51.999Z,98612.52
2023-05-11T12:34:24.172Z,98610.50
2023-05-11T12:36:53.699Z,98613.17
2023-05-11T12:39:26.110Z,98609.11
2023-05-11T12:41:55.295Z,98612.20
2023-05-11T12:44:24.703Z,98606.86
2023-05-11T12:46:52.666Z,98608.61
2023-05-11T12:49:25.362Z,98608.06
2023-05-11T12:52:00.260Z,98609.91
2023-05-11T12:54:37.589Z,98610.41
2023-05-11T12:57:07.223Z,98610.64
2023-05-11T12:59:38.823Z,98601.73
2023-05-11T13:02:22.880Z,98607.42
2023-05-11T13:04:50.045Z,98604.41
2023-05-11T13:07:28.118Z,98600.30
2023-05-11T13:09:59.793Z,98604.58
2023-05-11T13:12:30.994Z,98600.79
2023-05-11T13:15:13.223Z,98596.84
2023-05-11T13:17:41.803Z,98594.05
2023-05-11T13:20:23.963Z,98593.60
2023-05-11T13:22:51.064Z,98586.50
2023-05-11T13:25:20.625Z,98582.57
2023-05-11T13:27:48.165Z,98574.94
2023-05-11T13:30:15.354Z,98570.46
2023-05-11T13:32:42.466Z,98578.19
2023-05-11T13:35:09.599Z,98575.91
2023-05-11T13:37:36.699Z,98573.98
2023-05-11T13:40:08.204Z,98579.56
2023-05-11T13:42:36.358Z,98576.50
2023-05-11T13:45:03.927Z,98572.23
2023-05-11T13:47:30.979Z,98570.74
2023-05-11T13:49:58.420Z,98567.50
2023-05-11T13:52:25.379Z,98570.75
2023-05-11T13:54:52.408Z,98567.29
2023-05-11T13:57:20.347Z,98563.13
2023-05-11T13:59:47.598Z,98560.82
2023-05-11T14:02:14.932Z,98558.98
2023-05-11T14:04:41.998Z,98560.55
2023-05-11T14:07:09.017Z,98552.27
2023-05-11T14:09:36.585Z,98552.20
2023-05-11T14:12:03.921Z,98556.09
2023-05-11T14:14:30.933Z,98560.39
2023-05-11T14:16:58.216Z,98563.27
2023-05-11T14:19:25.328Z,98562.02
2023-05-11T14:21:52.864Z,98571.45
2023-05-11T14:24:20.140Z,98568.95
2023-05-11T14:26:47.075Z,98565.94
2023-05-11T14:29:14.325Z,98562.30
2023-05-11T14:31:42.110Z,98561.40
2023-05-11T14:34:09.147Z,98563.86
2023-05-11T14:36:36.276Z,98556.06
2023-05-11T14:39:03.834Z,98563.63
2023-05-11T14:41:30.795Z,98565.41
2023-05-11T14:43:57.777Z,98569.02
2023-05-11T14:46:26.595Z,98565.48
2023-05-11T14:48:53.816Z,98564.23
2023-05-11T14:51:20.880Z,98564.08
2023-05-11T14:53:47.787Z,98564.52
2023-05-11T14:56:14.791Z,98562.11
2023-05-11T14:58:42.746Z,98556.92
2023-05-11T15:01:09.967Z,98560.06
2023-05-11T15:03:37.083Z,98559.79
2023-05-11T15:06:04.430Z,98548.90
2023-05-11T15:08:31.857Z,98545.05
2023-05-11T15:10:59.193Z,98545.38
2023-05-11T15:13:26.503Z,98541.62
2023-05-11T15:15:53.527Z,98545.69
2023-05-11T15:18:20.509Z,98542.06
2023-05-11T15:20:47.491Z,98546.82
2023-05-11T15:23:16.044Z,98544.60
2023-05-11T15:25:43.943Z,98544.48
2023-05-11T15:28:11.046Z,98546.29
2023-05-11T15:30:38.197Z,98540.89
2023-05-11T15:33:05.180Z,98539.71
2023-05-11T15:35:35.050Z,98541.84
2023-05-11T15:38:03.138Z,98542.18
2023-05-11T15:40:30.212Z,98542.88
2023-05-11T15:42:58.952Z,98548.66
2023-05-11T15:45:26.468Z,98541.39
2023-05-11T15:47:54.375Z,98541.64
2023-05-11T15:50:21.720Z,98540.06
2023-05-11T15:52:49.255Z,98542.20
2023-05-11T15:55:16.323Z,98544.41
2023-05-11T15:57:43.288Z,98545.61
2023-05-11T16:00:12.220Z,98545.09
2023-05-11T16:02:39.477Z,98546.20
2023-05-11T16:05:06.902Z,98548.58
2023-05-11T16:07:33.961Z,98543.81
2023-05-11T16:10:00.861Z,98547.70
2023-05-11T16:12:28.075Z,98549.22
2023-05-11T16:14:55.354Z,98553.49
2023-05-11T16:17:22.343Z,98548.74
2023-05-11T16:19:49.471Z,98553.53
2023-05-11T16:22:16.334Z,98556.46
2023-05-11T16:24:43.410Z,98555.10
2023-05-11T16:27:10.399Z,98555.40
2023-05-11T16:29:37.543Z,98553.77
2023-05-11T16:32:05.002Z,98555.91
2023-05-11T16:38:53.983Z,98571.54
2023-05-11T16:41:21.056Z,98571.29
2023-05-11T16:43:49.698Z,98571.59
2023-05-11T16:46:16.746Z,98573.70
2023-05-11T16:48:43.779Z,98581.50
2023-05-11T16:51:10.788Z,98583.67
2023-05-11T16:53:37.903Z,98588.11
2023-05-11T16:56:05.554Z,98584.30
2023-05-11T16:58:32.770Z,98586.65
2023-05-11T17:00:59.820Z,98595.34
2023-05-11T17:03:26.756Z,98593.64
2023-05-11T17:05:53.773Z,98596.80
2023-05-11T17:08:20.861Z,98596.22
2023-05-11T17:10:47.767Z,98599.10
2023-05-11T17:13:15.135Z,98598.34
2023-05-11T17:15:44.337Z,98602.77
2023-05-11T17:18:11.643Z,98600.79
2023-05-11T17:20:38.957Z,98603.23
2023-05-11T17:23:06.527Z,98604.68
2023-05-11T17:25:33.769Z,98606.81
2023-05-11T17:28:01.135Z,98608.38
2023-05-11T17:30:39.920Z,98610.28
2023-05-11T17:33:14.500Z,98610.05
2023-05-11T17:35:41.644Z,98614.31
2023-05-11T17:38:08.587Z,98616.70
2023-05-11T17:40:35.541Z,98618.70
2023-05-11T17:43:02.484Z,98618.65
2023-05-11T17:45:29.616Z,98620.29
2023-05-11T17:47:56.959Z,98625.74
2023-05-11T17:50:24.095Z,98630.66
2023-05-11T17:52:51.401Z,98628.65
2023-05-11T17:55:18.837Z,98636.74
2023-05-11T17:57:46.665Z,98639.58
2023-05-11T18:00:14.840Z,98637.39
2023-05-11T18:02:42.003Z,98638.60
2023-05-11T18:05:09.776Z,98643.61
2023-05-11T18:07:37.366Z,98645.21
2023-05-11T18:10:05.005Z,98651.33
2023-05-11T18:12:32.103Z,98655.65
2023-05-11T18:14:59.407Z,98660.95
2023-05-11T18:17:26.685Z,98664.80
2023-05-11T18:19:54.024Z,98666.34
2023-05-11T18:22:22.709Z,98673.43
2023-05-11T18:24:50.004Z,98673.04
2023-05-11T18:27:17.981Z,98678.03
2023-05-11T18:29:45.310Z,98683.95
2023-05-11T18:32:12.569Z,98684.75
2023-05-11T18:34:40.855Z,98688.11
2023-05-11T18:37:09.253Z,98690.23
2023-05-11T18:39:36.486Z,98692.71
2023-05-11T18:42:05.183Z,98696.67
2023-05-11T18:44:34.489Z,98701.45
2023-05-11T18:47:03.495Z,98698.98
2023-05-11T18:49:30.733Z,98698.64
2023-05-11T18:51:57.844Z,98709.30
2023-05-11T18:54:24.951Z,98712.68
2023-05-11T18:56:52.418Z,98712.61
2023-05-11T18:59:19.674Z,98714.64
2023-05-11T19:01:47.954Z,98716.80
2023-05-11T19:04:19.200Z,98721.08
2023-05-11T19:06:46.654Z,98724.14
2023-05-11T19:09:13.685Z,98723.81
2023-05-11T19:11:41.597Z,98731.81
2023-05-11T19:14:09.869Z,98728.53
2023-05-11T19:16:36.955Z,98731.83
2023-05-11T19:19:04.325Z,98733.48
2023-05-11T19:21:31.550Z,98737.34
2023-05-11T19:23:58.693Z,98739.85
2023-05-11T19:26:25.762Z,98742.00
2023-05-11T19:28:52.801Z,98744.39
2023-05-11T19:31:20.164Z,98747.48
2023-05-11T19:33:47.522Z,98745.98
2023-05-11T19:36:14.781Z,98748.19
2023-05-11T19:38:42.548Z,98749.73
2023-05-11T19:41:09.800Z,98751.96
2023-05-11T19:43:37.475Z,98754.16
2023-05-11T19:46:04.830Z,98760.35
2023-05-11T19:48:32.706Z,98762.36
2023-05-11T19:51:00.886Z,98763.05
2023-05-11T19:53:30.490Z,98759.84
2023-05-11T19:55:57.869Z,98765.66
2023-05-11T19:58:25.011Z,98763.66
2023-05-11T20:00:52.172Z,98768.25
2023-05-11T20:03:19.516Z,98767.40
2023-05-11T20:05:46.985Z,98765.48
2023-05-11T20:08:14.246Z,98769.06
2023-05-11T20:10:41.309Z,98768.90
2023-05-11T20:13:08.350Z,98770.40
2023-05-11T20:15:35.523Z,98770.98
2023-05-11T20:18:03.181Z,98771.77
2023-05-11T20:20:32.192Z,98770.67
2023-05-11T20:23:00.477Z,98776.23
2023-05-11T20:25:27.611Z,98770.38
2023-05-11T20:27:54.678Z,98773.44
2023-05-11T20:30:22.124Z,98776.02
2023-05-11T20:35:21.660Z,98780.29
2023-05-11T20:37:48.926Z,98782.88
2023-05-11T20:40:16.325Z,98784.33
2023-05-11T20:42:43.643Z,98790.85
2023-05-11T20:45:10.972Z,98793.33
2023-05-11T20:47:38.614Z,98794.84
2023-05-11T20:50:07.909Z,98798.15
2023-05-11T20:52:35.747Z,98798.73
2023-05-11T20:55:02.897Z,98796.23
2023-05-11T20:57:30.158Z,98793.73
2023-05-11T21:02:28.066Z,98794.52
2023-05-11T21:05:01.249Z,98797.48
2023-05-11T21:07:29.124Z,98800.98
2023-05-11T21:09:56.487Z,98799.77
2023-05-11T21:12:23.734Z,98801.02
2023-05-11T21:14:50.989Z,98802.20
2023-05-11T21:17:18.540Z,98805.12
2023-05-11T21:19:46.325Z,98806.80
2023-05-11T21:22:13.384Z,98809.02
2023-05-11T21:24:42.274Z,98808.74
2023-05-11T21:27:09.740Z,98809.95
2023-05-11T21:29:36.789Z,98808.86
2023-05-11T21:32:04.864Z,98810.23
2023-05-11T21:34:31.826Z,98805.63
2023-05-11T21:36:59.272Z,98805.23
2023-05-11T21:39:26.755Z,98807.27
2023-05-11T21:41:54.003Z,98806.08
2023-05-11T21:44:21.156Z,98811.21
2023-05-11T21:46:48.149Z,98811.33
2023-05-11T21:49:15.706Z,98815.55
2023-05-11T21:51:43.133Z,98819.60
2023-05-11T21:54:10.400Z,98820.55
2023-05-11T21:56:37.562Z,98820.48
2023-05-11T21:59:04.811Z,98821.65
2023-05-11T22:01:32.342Z,98826.96
2023-05-11T22:04:00.800Z,98827.35
2023-05-11T22:06:28.017Z,98830.90
2023-05-11T22:08:55.481Z,98827.23
2023-05-11T22:11:23.865Z,98824.48
2023-05-11T22:13:51.429Z,98829.35
2023-05-11T22:16:18.594Z,98826.96
2023-05-11T22:18:45.988Z,98829.90
2023-05-11T22:21:13.305Z,98828.14
2023-05-11T22:23:40.462Z,98829.60
2023-05-11T22:26:07.719Z,98828.78
2023-05-11T22:28:35.507Z,98829.66
2023-05-11T22:31:02.764Z,98833.36
2023-05-11T22:33:29.896Z,98833.87
2023-05-11T22:35:57.157Z,98835.73
2023-05-11T22:38:24.308Z,98836.64
2023-05-11T22:40:51.671Z,98837.65
2023-05-11T22:43:18.727Z,98840.77
2023-05-11T22:45:45.591Z,98840.80
2023-05-11T22:48:13.543Z,98841.33
2023-05-11T22:50:46.871Z,98842.74
2023-05-11T22:53:14.416Z,98847.22
2023-05-11T22:55:41.920Z,98849.25
2023-05-11T22:58:08.950Z,98850.57
2023-05-11T23:00:36.793Z,98849.69
2023-05-11T23:03:04.187Z,98847.78
2023-05-11T23:05:31.521Z,98845.06
2023-05-11T23:07:59.502Z,98844.31
2023-05-11T23:10:28.095Z,98843.82
2023-05-11T23:12:55.743Z,98846.07
2023-05-11T23:15:22.806Z,98845.52
2023-05-11T23:17:50.065Z,98844.38
2023-05-11T23:20:17.509Z,98842.59
2023-05-11T23:22:44.777Z,98840.63
2023-05-11T23:25:11.831Z,98840.53
2023-05-11T23:27:38.885Z,98840.63
2023-05-11T23:30:06.765Z,98840.86
2023-05-11T23:32:33.934Z,98841.42
2023-05-11T23:35:01.078Z,98840.72
2023-05-11T23:37:28.433Z,98840.10
2023-05-11T23:39:55.589Z,98833.20
2023-05-11T23:42:22.639Z,98835.73
2023-05-11T23:44:49.918Z,98834.47
2023-05-11T23:47:17.018Z,98828.17
2023-05-11T23:49:44.106Z,98832.22
2023-05-11T23:52:11.369Z,98828.78
2023-05-11T23:54:38.822Z,98830.58
2023-05-11T23:57:06.078Z,98828.46
2023-05-11T23:59:33.336Z,98830.99
